createdAt,value
2017-04-01T00:00:02.457Z,93.88
2017-04-01T00:01:02.430Z,94.74
2017-04-01T00:02:02.490Z,94.84
2017-04-01T00:03:02.516Z,94.84
2017-04-01T00:04:02.611Z,94.56
2017-04-01T00:05:02.549Z,94.93
2017-04-01T00:06:02.592Z,94.74
2017-04-01T00:07:02.644Z,94.65
2017-04-01T00:08:02.645Z,94.56
2017-04-01T00:09:02.698Z,94.93
2017-04-01T00:10:02.756Z,95.12
2017-04-01T00:11:02.785Z,95.32
2017-04-01T00:12:02.808Z,95.12
2017-04-01T00:13:02.856Z,95.51
2017-04-01T00:14:02.847Z,94.93
2017-04-01T00:15:02.889Z,95.7
2017-04-01T00:16:02.919Z,95.89
2017-04-01T00:17:02.937Z,95.51
2017-04-01T00:18:03.022Z,95.61
2017-04-01T00:19:03.034Z,95.61
2017-04-01T00:20:03.043Z,95.41
2017-04-01T00:21:03.076Z,96.08
2017-04-01T00:22:03.137Z,96.36
2017-04-01T00:23:03.156Z,96.17
2017-04-01T00:24:03.175Z,95.65
2017-04-01T00:25:03.228Z,96.03
2017-04-01T00:26:03.236Z,95.79
2017-04-01T00:27:03.279Z,96.12
2017-04-01T00:28:03.354Z,96.12
2017-04-01T00:29:03.349Z,96.22
2017-04-01T00:30:03.359Z,96.12
2017-04-01T00:31:03.467Z,95.94
2017-04-01T00:32:03.464Z,96.51
2017-04-01T00:33:03.468Z,96.6
2017-04-01T00:34:03.519Z,96.98
2017-04-01T00:35:03.548Z,97.46
2017-04-01T00:36:03.586Z,97.36
2017-04-01T00:37:03.613Z,97.65
2017-04-01T00:38:03.629Z,97.56
2017-04-01T00:39:03.656Z,97.75
2017-04-01T00:40:03.693Z,97.65
2017-04-01T00:41:03.730Z,97.75
2017-04-01T00:42:03.751Z,97.94
2017-04-01T00:43:03.808Z,97.94
2017-04-01T00:44:03.872Z,98.13
2017-04-01T00:45:03.851Z,97.75
2017-04-01T00:46:03.884Z,98.03
2017-04-01T00:47:03.943Z,98.03
2017-04-01T00:48:03.951Z,97.84
2017-04-01T00:49:04.151Z,97.94
2017-04-01T00:50:04.074Z,98.03
2017-04-01T00:51:04.066Z,97.75
2017-04-01T00:52:04.100Z,98.51
2017-04-01T00:53:04.131Z,98.32
2017-04-01T00:54:04.157Z,98.22
2017-04-01T00:55:04.201Z,98.03
2017-04-01T00:56:04.206Z,98.65
2017-04-01T00:57:04.259Z,98.46
2017-04-01T00:58:04.251Z,98.46
2017-04-01T00:59:04.323Z,98.65
2017-04-01T01:00:04.531Z,98.84
2017-04-01T01:01:04.367Z,98.65
2017-04-01T01:02:04.420Z,98.55
2017-04-01T01:03:04.454Z,98.65
2017-04-01T01:04:04.459Z,99.32
2017-04-01T01:05:04.509Z,99.99
2017-04-01T01:06:04.522Z,99.99
2017-04-01T01:07:04.560Z,99.13
2017-04-01T01:08:04.589Z,99.99
2017-04-01T01:09:04.665Z,99.22
2017-04-01T01:10:04.661Z,99.22
2017-04-01T01:11:04.709Z,99.13
2017-04-01T01:12:04.769Z,99.69
2017-04-01T01:13:04.775Z,99.99
2017-04-01T01:14:04.777Z,99.22
2017-04-01T01:15:05.103Z,99.99
2017-04-01T01:16:04.848Z,99.99
2017-04-01T01:17:04.921Z,99.99
2017-04-01T01:18:04.902Z,99.99
2017-04-01T01:19:04.940Z,99.99
2017-04-01T01:20:04.965Z,99.99
2017-04-01T01:21:05.002Z,99.99
2017-04-01T01:22:05.038Z,99.99
2017-04-01T01:23:05.050Z,99.99
2017-04-01T01:24:05.096Z,99.99
2017-04-01T01:25:05.121Z,99.99
2017-04-01T01:26:05.150Z,99.99
2017-04-01T01:27:05.197Z,99.22
2017-04-01T01:28:05.225Z,99.32
2017-04-01T01:29:05.254Z,99.32
2017-04-01T01:30:05.312Z,99.13
2017-04-01T01:31:05.315Z,99.99
2017-04-01T01:32:05.363Z,99.99
2017-04-01T01:33:05.381Z,99.99
2017-04-01T01:34:05.459Z,99.99
2017-04-01T01:35:05.468Z,99.99
2017-04-01T01:36:05.512Z,99.99
2017-04-01T01:37:05.553Z,99.99
2017-04-01T01:38:05.556Z,99.99
2017-04-01T01:39:05.599Z,99.99
2017-04-01T01:40:05.601Z,99.99
2017-04-01T01:41:05.644Z,99.99
2017-04-01T01:42:05.663Z,99.99
2017-04-01T01:43:05.693Z,99.99
2017-04-01T01:44:05.724Z,99.99
2017-04-01T01:45:05.850Z,99.99
2017-04-01T01:46:05.790Z,99.99
2017-04-01T01:47:05.824Z,99.99
2017-04-01T01:48:05.856Z,99.99
2017-04-01T01:49:05.910Z,99.99
2017-04-01T01:50:05.955Z,99.99
2017-04-01T01:51:05.952Z,99.99
2017-04-01T01:52:06.007Z,99.99
2017-04-01T01:53:06.035Z,99.99
2017-04-01T01:54:06.068Z,99.99
2017-04-01T01:55:06.077Z,99.99
2017-04-01T01:56:06.134Z,99.99
2017-04-01T01:57:06.151Z,99.99
2017-04-01T01:58:06.245Z,99.99
2017-04-01T01:59:06.186Z,99.99
2017-04-01T02:00:06.294Z,99.99
2017-04-01T02:01:06.259Z,99.99
2017-04-01T02:02:06.317Z,99.99
2017-04-01T02:03:06.328Z,99.99
2017-04-01T02:04:06.381Z,99.99
2017-04-01T02:05:06.390Z,99.99
2017-04-01T02:06:06.453Z,99.99
2017-04-01T02:07:06.450Z,99.99
2017-04-01T02:08:06.485Z,99.99
2017-04-01T02:09:06.557Z,99.99
2017-04-01T02:10:06.592Z,99.99
2017-04-01T02:11:06.580Z,99.99
2017-04-01T02:12:06.632Z,99.99
2017-04-01T02:13:06.665Z,99.99
2017-04-01T02:14:06.695Z,99.99
2017-04-01T02:15:06.708Z,99.99
2017-04-01T02:16:06.770Z,99.99
2017-04-01T02:17:06.758Z,99.99
2017-04-01T02:18:06.785Z,99.99
2017-04-01T02:19:06.858Z,99.99
2017-04-01T02:20:06.853Z,99.99
2017-04-01T02:21:06.920Z,99.99
2017-04-01T02:22:06.911Z,99.99
2017-04-01T02:23:06.951Z,99.99
2017-04-01T02:24:06.982Z,99.99
2017-04-01T02:25:07.002Z,99.99
2017-04-01T02:26:39.359Z,99.99
2017-04-01T02:27:19.757Z,99.99
2017-04-01T02:28:19.786Z,99.99
2017-04-01T02:29:19.818Z,99.99
2017-04-01T02:30:19.857Z,99.99
2017-04-01T02:31:19.891Z,99.99
2017-04-01T02:32:19.932Z,99.99
2017-04-01T02:33:19.947Z,99.99
2017-04-01T02:34:19.942Z,99.99
2017-04-01T02:35:20.108Z,99.99
2017-04-01T02:36:20.059Z,99.99
2017-04-01T02:37:20.046Z,99.99
2017-04-01T02:38:20.099Z,99.99
2017-04-01T02:39:20.135Z,99.99
2017-04-01T02:40:20.299Z,99.99
2017-04-01T02:41:20.194Z,99.99
2017-04-01T02:42:20.229Z,99.99
2017-04-01T02:43:20.297Z,99.99
2017-04-01T02:44:20.291Z,99.99
2017-04-01T02:45:20.324Z,99.99
2017-04-01T02:46:20.350Z,99.99
2017-04-01T02:47:20.381Z,99.99
2017-04-01T02:48:20.417Z,99.99
2017-04-01T02:49:20.444Z,99.99
2017-04-01T02:50:20.447Z,99.99
2017-04-01T02:51:20.490Z,99.99
2017-04-01T02:52:20.538Z,99.99
2017-04-01T02:53:20.559Z,99.99
2017-04-01T02:54:20.603Z,99.99
2017-04-01T02:55:20.630Z,99.99
2017-04-01T02:56:20.649Z,99.99
2017-04-01T02:57:20.694Z,99.99
2017-04-01T02:58:20.725Z,99.99
2017-04-01T02:59:20.758Z,99.99
2017-04-01T03:00:20.784Z,99.99
2017-04-01T03:01:20.817Z,99.99
2017-04-01T03:02:20.858Z,99.99
2017-04-01T03:03:20.862Z,99.99
2017-04-01T03:04:20.914Z,99.99
2017-04-01T03:05:20.938Z,99.99
2017-04-01T03:06:20.963Z,99.99
2017-04-01T03:07:21.004Z,99.99
2017-04-01T03:08:21.056Z,99.99
2017-04-01T03:09:21.064Z,99.99
2017-04-01T03:10:21.104Z,99.99
2017-04-01T03:11:21.130Z,99.99
2017-04-01T03:12:21.163Z,99.99
2017-04-01T03:13:21.195Z,99.99
2017-04-01T03:14:21.225Z,99.99
2017-04-01T03:15:21.273Z,99.99
2017-04-01T03:16:21.281Z,99.99
2017-04-01T03:17:21.312Z,99.99
2017-04-01T03:18:21.337Z,99.99
2017-04-01T03:19:21.380Z,99.99
2017-04-01T03:20:21.400Z,99.99
2017-04-01T03:21:21.442Z,99.99
2017-04-01T03:22:21.466Z,99.99
2017-04-01T03:23:21.506Z,99.99
2017-04-01T03:24:21.529Z,99.99
2017-04-01T03:25:21.549Z,99.99
2017-04-01T03:26:21.691Z,99.99
2017-04-01T03:27:21.628Z,99.99
2017-04-01T03:28:21.659Z,99.99
2017-04-01T03:29:21.687Z,99.99
2017-04-01T03:30:21.704Z,99.99
2017-04-01T03:31:21.900Z,99.99
2017-04-01T03:32:21.761Z,99.99
2017-04-01T03:33:21.817Z,99.99
2017-04-01T03:34:21.838Z,99.99
2017-04-01T03:35:21.855Z,99.99
2017-04-01T03:36:21.902Z,99.99
2017-04-01T03:37:21.931Z,99.99
2017-04-01T03:38:21.965Z,99.99
2017-04-01T03:39:21.998Z,99.99
2017-04-01T03:40:22.031Z,99.99
2017-04-01T03:41:22.056Z,99.99
2017-04-01T03:42:22.046Z,99.99
2017-04-01T03:43:22.125Z,99.99
2017-04-01T03:44:22.152Z,99.99
2017-04-01T03:45:22.146Z,99.99
2017-04-01T03:46:22.248Z,99.99
2017-04-01T03:47:22.253Z,99.99
2017-04-01T03:48:22.246Z,99.99
2017-04-01T03:49:22.303Z,99.99
2017-04-01T03:50:22.338Z,99.99
2017-04-01T03:51:22.364Z,99.99
2017-04-01T03:52:22.396Z,99.99
2017-04-01T03:53:22.430Z,99.99
2017-04-01T03:54:22.445Z,99.99
2017-04-01T03:55:22.493Z,99.99
2017-04-01T03:56:22.516Z,99.99
2017-04-01T03:57:22.554Z,99.99
2017-04-01T03:58:22.564Z,99.99
2017-04-01T03:59:22.614Z,99.99
2017-04-01T04:00:22.615Z,99.99
2017-04-01T04:01:22.645Z,99.99
2017-04-01T04:02:22.671Z,99.99
2017-04-01T04:03:22.706Z,99.99
2017-04-01T04:04:22.749Z,99.99
2017-04-01T04:05:22.773Z,99.99
2017-04-01T04:06:22.798Z,99.99
2017-04-01T04:07:22.815Z,99.99
2017-04-01T04:08:22.854Z,99.99
2017-04-01T04:09:22.887Z,99.99
2017-04-01T04:10:23.273Z,99.99
2017-04-01T04:11:22.952Z,99.99
2017-04-01T04:12:22.977Z,99.99
2017-04-01T04:13:23.011Z,99.99
2017-04-01T04:14:23.039Z,99.99
2017-04-01T04:15:23.228Z,99.99
2017-04-01T04:16:23.102Z,99.99
2017-04-01T04:17:23.139Z,99.99
2017-04-01T04:18:23.162Z,99.99
2017-04-01T04:19:23.225Z,99.99
2017-04-01T04:20:23.224Z,99.99
2017-04-01T04:21:23.240Z,99.99
2017-04-01T04:22:23.293Z,99.99
2017-04-01T04:23:23.313Z,99.99
2017-04-01T04:24:23.347Z,99.99
2017-04-01T04:25:23.382Z,99.99
2017-04-01T04:26:23.409Z,99.99
2017-04-01T04:27:23.440Z,99.99
2017-04-01T04:28:23.469Z,99.99
2017-04-01T04:29:23.498Z,99.99
2017-04-01T04:30:23.534Z,99.99
2017-04-01T04:31:23.558Z,99.99
2017-04-01T04:32:23.592Z,99.99
2017-04-01T04:33:23.624Z,99.99
2017-04-01T04:34:23.654Z,99.99
2017-04-01T04:35:23.686Z,99.99
2017-04-01T04:36:23.709Z,99.99
2017-04-01T04:37:23.741Z,99.99
2017-04-01T04:38:23.783Z,99.99
2017-04-01T04:39:23.805Z,99.99
2017-04-01T04:40:23.825Z,99.99
2017-04-01T04:41:23.845Z,99.99
2017-04-01T04:42:23.898Z,99.99
2017-04-01T04:43:23.923Z,99.99
2017-04-01T04:44:23.959Z,99.99
2017-04-01T04:45:23.984Z,99.99
2017-04-01T04:46:24.024Z,99.99
2017-04-01T04:47:24.055Z,99.99
2017-04-01T04:48:24.062Z,99.99
2017-04-01T04:49:24.149Z,99.99
2017-04-01T04:50:24.434Z,99.99
2017-04-01T04:51:24.167Z,99.99
2017-04-01T04:52:24.201Z,99.99
2017-04-01T04:53:24.223Z,99.99
2017-04-01T04:54:24.255Z,99.99
2017-04-01T04:55:24.290Z,99.99
2017-04-01T04:56:24.320Z,99.99
2017-04-01T04:57:24.355Z,99.99
2017-04-01T04:58:24.384Z,99.99
2017-04-01T04:59:24.411Z,99.99
2017-04-01T05:00:24.447Z,99.99
2017-04-01T05:01:24.472Z,99.99
2017-04-01T05:02:24.523Z,99.99
2017-04-01T05:03:24.531Z,99.99
2017-04-01T05:04:24.552Z,99.99
2017-04-01T05:05:24.595Z,99.99
2017-04-01T05:06:24.655Z,99.99
2017-04-01T05:07:24.656Z,99.99
2017-04-01T05:08:24.685Z,99.99
2017-04-01T05:09:24.709Z,99.99
2017-04-01T05:10:24.899Z,99.99
2017-04-01T05:11:24.783Z,99.99
2017-04-01T05:12:24.808Z,99.99
2017-04-01T05:13:24.839Z,99.99
2017-04-01T05:14:24.870Z,99.99
2017-04-01T05:15:24.903Z,99.99
2017-04-01T05:16:24.930Z,99.99
2017-04-01T05:17:24.965Z,99.99
2017-04-01T05:18:24.996Z,99.99
2017-04-01T05:19:25.024Z,99.99
2017-04-01T05:20:25.054Z,99.99
2017-04-01T05:21:25.066Z,99.99
2017-04-01T05:22:25.114Z,99.99
2017-04-01T05:23:25.137Z,99.99
2017-04-01T05:24:25.174Z,99.99
2017-04-01T05:25:25.210Z,99.99
2017-04-01T05:26:25.235Z,99.99
2017-04-01T05:27:25.268Z,99.99
2017-04-01T05:28:25.306Z,99.99
2017-04-01T05:29:25.330Z,99.99
2017-04-01T05:30:25.402Z,99.99
2017-04-01T05:31:25.391Z,99.99
2017-04-01T05:32:25.426Z,99.99
2017-04-01T05:33:25.454Z,99.99
2017-04-01T05:34:25.488Z,99.99
2017-04-01T05:35:25.512Z,99.99
2017-04-01T05:36:25.540Z,99.99
2017-04-01T05:37:25.578Z,99.99
2017-04-01T05:38:25.605Z,99.99
2017-04-01T05:39:25.634Z,99.99
2017-04-01T05:40:25.884Z,99.99
2017-04-01T05:41:25.697Z,99.99
2017-04-01T05:42:25.729Z,99.99
2017-04-01T05:43:25.766Z,99.99
2017-04-01T05:44:25.790Z,99.99
2017-04-01T05:45:25.844Z,99.99
2017-04-01T05:46:25.890Z,99.99
2017-04-01T05:47:25.883Z,99.99
2017-04-01T05:48:25.914Z,99.99
2017-04-01T05:49:25.947Z,99.99
2017-04-01T05:50:25.986Z,98.89
2017-04-01T05:51:26.216Z,97.08
2017-04-01T05:52:26.023Z,96.08
2017-04-01T05:53:26.081Z,94.7
2017-04-01T05:54:26.113Z,92.83
2017-04-01T05:55:26.125Z,90.02
2017-04-01T05:56:26.170Z,87.48
2017-04-01T05:57:26.199Z,86.96
2017-04-01T05:58:26.233Z,84.61
2017-04-01T05:59:26.252Z,81.78
2017-04-01T06:00:26.287Z,78.76
2017-04-01T06:01:26.327Z,79.33
2017-04-01T06:02:26.362Z,79.28
2017-04-01T06:03:26.382Z,76.5
2017-04-01T06:04:26.424Z,76.02
2017-04-01T06:05:26.527Z,75.83
2017-04-01T06:06:26.507Z,75.48
2017-04-01T06:07:26.523Z,75.39
2017-04-01T06:08:26.599Z,74.66
2017-04-01T06:09:26.620Z,74.02
2017-04-01T06:10:26.632Z,72.68
2017-04-01T06:11:26.664Z,71.28
2017-04-01T06:12:26.693Z,71.15
2017-04-01T06:13:26.726Z,71.34
2017-04-01T06:14:26.772Z,72.55
2017-04-01T06:15:26.895Z,73.95
2017-04-01T06:16:26.860Z,75.54
2017-04-01T06:17:28.142Z,76.94
2017-04-01T06:18:26.930Z,78.34
2017-04-01T06:19:26.930Z,80.11
2017-04-01T06:20:27.009Z,81.26
2017-04-01T06:21:26.997Z,81.89
2017-04-01T06:22:27.016Z,82.84
2017-04-01T06:23:27.264Z,82.75
2017-04-01T06:24:27.099Z,81.99
2017-04-01T06:25:27.148Z,80.3
2017-04-01T06:26:27.153Z,78.47
2017-04-01T06:27:27.204Z,76.5
2017-04-01T06:28:27.225Z,74.27
2017-04-01T06:29:27.266Z,73.35
2017-04-01T06:30:27.332Z,71.61
2017-04-01T06:31:27.334Z,68.85
2017-04-01T06:32:27.376Z,67.77
2017-04-01T06:33:27.417Z,66.3
2017-04-01T06:34:27.447Z,64.02
2017-04-01T06:35:27.583Z,62.35
2017-04-01T06:36:27.512Z,61.25
2017-04-01T06:37:27.539Z,59.16
2017-04-01T06:38:27.584Z,57.57
2017-04-01T06:39:27.618Z,56.15
2017-04-01T06:40:27.797Z,55.02
2017-04-01T06:41:27.694Z,55.11
2017-04-01T06:42:27.727Z,54.35
2017-04-01T06:43:27.759Z,53.59
2017-04-01T06:44:27.799Z,52.95
2017-04-01T06:45:27.833Z,52.29
2017-04-01T06:46:27.873Z,51.72
2017-04-01T06:47:29.328Z,49.7
2017-04-01T06:48:27.935Z,49.22
2017-04-01T06:49:27.979Z,49.7
2017-04-01T06:50:28.019Z,50.09
2017-04-01T06:51:28.058Z,50.12
2017-04-01T06:52:28.100Z,48.97
2017-04-01T06:53:28.362Z,47.45
2017-04-01T06:54:28.198Z,48.22
2017-04-01T06:55:28.237Z,48.15
2017-04-01T06:56:28.451Z,46.33
2017-04-01T06:57:28.268Z,46.35
2017-04-01T06:58:28.308Z,46.45
2017-04-01T06:59:28.368Z,46.2
2017-04-01T07:00:28.491Z,46.01
2017-04-01T07:01:28.443Z,45.15
2017-04-01T07:02:28.476Z,45.15
2017-04-01T07:03:28.513Z,44.38
2017-04-01T07:04:28.534Z,43.91
2017-04-01T07:05:28.594Z,43.43
2017-04-01T07:06:28.628Z,42.57
2017-04-01T07:07:28.668Z,43.35
2017-04-01T07:08:28.709Z,42.47
2017-04-01T07:09:28.750Z,42
2017-04-01T07:10:28.782Z,41.83
2017-04-01T07:11:28.831Z,40.37
2017-04-01T07:12:28.863Z,40.37
2017-04-01T07:13:28.899Z,41.15
2017-04-01T07:14:28.944Z,41.36
2017-04-01T07:15:28.984Z,40.89
2017-04-01T07:16:29.009Z,39.04
2017-04-01T07:17:29.052Z,39.26
2017-04-01T07:18:29.099Z,39.65
2017-04-01T07:19:29.147Z,39.55
2017-04-01T07:20:29.179Z,39.06
2017-04-01T07:21:29.224Z,38.79
2017-04-01T07:22:29.248Z,38.61
2017-04-01T07:23:29.299Z,38.02
2017-04-01T07:24:29.343Z,36.47
2017-04-01T07:25:29.633Z,36.18
2017-04-01T07:26:29.421Z,36.16
2017-04-01T07:27:29.466Z,36.07
2017-04-01T07:28:29.506Z,36.65
2017-04-01T07:29:29.546Z,37.12
2017-04-01T07:30:29.596Z,35.68
2017-04-01T07:31:29.632Z,35.97
2017-04-01T07:32:29.668Z,36.16
2017-04-01T07:33:29.694Z,36.77
2017-04-01T07:34:29.749Z,36.3
2017-04-01T07:35:29.783Z,36.32
2017-04-01T07:36:29.829Z,36.14
2017-04-01T07:37:29.874Z,35.76
2017-04-01T07:38:29.930Z,35.08
2017-04-01T07:39:29.965Z,34.8
2017-04-01T07:40:29.999Z,34.69
2017-04-01T07:41:30.045Z,34.59
2017-04-01T07:42:30.076Z,34.78
2017-04-01T07:43:30.128Z,35.08
2017-04-01T07:44:30.171Z,34.98
2017-04-01T07:45:30.196Z,34.98
2017-04-01T07:46:30.250Z,34.78
2017-04-01T07:47:30.294Z,34.51
2017-04-01T07:48:30.334Z,34.41
2017-04-01T07:49:30.378Z,34.11
2017-04-01T07:50:30.406Z,34.13
2017-04-01T07:51:30.457Z,33.94
2017-04-01T07:52:30.504Z,33.65
2017-04-01T07:53:30.542Z,33.75
2017-04-01T07:54:30.572Z,32.79
2017-04-01T07:55:30.628Z,32.71
2017-04-01T07:56:30.680Z,32.59
2017-04-01T07:57:30.714Z,32.02
2017-04-01T07:58:30.977Z,32.5
2017-04-01T07:59:30.802Z,32.5
2017-04-01T08:00:30.844Z,32.1
2017-04-01T08:01:30.888Z,32.09
2017-04-01T08:02:30.932Z,32.59
2017-04-01T08:03:30.974Z,32.1
2017-04-01T08:04:31.050Z,32.71
2017-04-01T08:05:31.081Z,32.41
2017-04-01T08:06:31.109Z,31.84
2017-04-01T08:07:31.148Z,32.43
2017-04-01T08:08:31.192Z,32.33
2017-04-01T08:09:31.245Z,31.95
2017-04-01T08:10:31.282Z,31.95
2017-04-01T08:11:31.322Z,31.85
2017-04-01T08:12:31.344Z,32.74
2017-04-01T08:13:31.424Z,32.53
2017-04-01T08:14:31.470Z,32.79
2017-04-01T08:15:31.493Z,32.78
2017-04-01T08:16:31.539Z,33.07
2017-04-01T08:17:31.594Z,32.97
2017-04-01T08:18:31.808Z,32.61
2017-04-01T08:19:31.676Z,31.94
2017-04-01T08:20:31.718Z,30.68
2017-04-01T08:21:31.761Z,31.56
2017-04-01T08:22:31.816Z,31.36
2017-04-01T08:23:31.905Z,31.18
2017-04-01T08:24:31.908Z,30.6
2017-04-01T08:25:32.166Z,30.41
2017-04-01T08:26:31.993Z,30.41
2017-04-01T08:27:32.036Z,30.9
2017-04-01T08:28:32.065Z,30.82
2017-04-01T08:29:32.117Z,30.72
2017-04-01T08:30:32.409Z,30.72
2017-04-01T08:31:32.208Z,30.82
2017-04-01T08:32:32.254Z,31.11
2017-04-01T08:33:32.295Z,30.93
2017-04-01T08:34:32.353Z,30.44
2017-04-01T08:35:32.390Z,30.34
2017-04-01T08:36:32.455Z,30.34
2017-04-01T08:37:32.476Z,29.85
2017-04-01T08:38:32.530Z,30.44
2017-04-01T08:39:32.556Z,30.34
2017-04-01T08:40:32.615Z,30.54
2017-04-01T08:41:32.667Z,30.63
2017-04-01T08:42:32.702Z,30.55
2017-04-01T08:43:32.758Z,29.86
2017-04-01T08:44:32.805Z,29.88
2017-04-01T08:45:32.852Z,29.79
2017-04-01T08:46:32.891Z,29.8
2017-04-01T08:47:32.936Z,29.72
2017-04-01T08:48:32.987Z,29.13
2017-04-01T08:49:33.026Z,29.05
2017-04-01T08:50:33.074Z,28.06
2017-04-01T08:51:33.109Z,29.03
2017-04-01T08:52:33.167Z,29.13
2017-04-01T08:53:33.206Z,29.13
2017-04-01T08:54:33.265Z,28.75
2017-04-01T08:55:33.312Z,29.16
2017-04-01T08:56:33.348Z,28.06
2017-04-01T08:57:33.400Z,28.24
2017-04-01T08:58:33.444Z,28.13
2017-04-01T08:59:33.500Z,28.53
2017-04-01T09:00:33.531Z,28.83
2017-04-01T09:01:33.592Z,27.84
2017-04-01T09:02:33.638Z,27.47
2017-04-01T09:03:33.682Z,27.76
2017-04-01T09:04:33.729Z,27.47
2017-04-01T09:05:33.779Z,28.44
2017-04-01T09:06:33.830Z,28.93
2017-04-01T09:07:33.872Z,28.74
2017-04-01T09:08:33.921Z,27.75
2017-04-01T09:09:33.965Z,28.44
2017-04-01T09:10:34.012Z,28.94
2017-04-01T09:11:34.067Z,27.18
2017-04-01T09:12:34.108Z,27.56
2017-04-01T09:13:34.158Z,28.53
2017-04-01T09:14:34.202Z,27.75
2017-04-01T09:15:34.255Z,28.44
2017-04-01T09:16:34.323Z,28.65
2017-04-01T09:17:34.348Z,28.96
2017-04-01T09:18:34.395Z,28.58
2017-04-01T09:19:34.453Z,28.41
2017-04-01T09:20:34.489Z,28.32
2017-04-01T09:21:34.546Z,27.64
2017-04-01T09:22:34.594Z,27.26
2017-04-01T09:23:34.640Z,27.36
2017-04-01T09:24:34.703Z,27.75
2017-04-01T09:25:34.743Z,27.75
2017-04-01T09:26:34.787Z,27.08
2017-04-01T09:27:34.842Z,27.26
2017-04-01T09:28:34.885Z,26.67
2017-04-01T09:29:34.935Z,26.76
2017-04-01T09:30:34.987Z,27.34
2017-04-01T09:31:35.022Z,28.53
2017-04-01T09:32:35.080Z,26.75
2017-04-01T09:33:35.130Z,27.03
2017-04-01T09:34:35.175Z,27.72
2017-04-01T09:35:35.255Z,27.9
2017-04-01T09:36:35.260Z,27.51
2017-04-01T09:37:35.331Z,27.81
2017-04-01T09:38:35.373Z,27.43
2017-04-01T09:39:35.418Z,27.63
2017-04-01T09:40:35.462Z,26.84
2017-04-01T09:41:35.532Z,26.95
2017-04-01T09:42:35.565Z,26.85
2017-04-01T09:43:35.619Z,27.04
2017-04-01T09:44:35.664Z,27.16
2017-04-01T09:45:35.721Z,27.36
2017-04-01T09:46:35.758Z,26.96
2017-04-01T09:47:35.799Z,26.96
2017-04-01T09:48:35.858Z,26.96
2017-04-01T09:49:35.905Z,26.86
2017-04-01T09:50:35.950Z,27.36
2017-04-01T09:51:36.006Z,26.76
2017-04-01T09:52:36.051Z,26.58
2017-04-01T09:53:36.113Z,26.58
2017-04-01T09:54:36.159Z,26.78
2017-04-01T09:55:36.205Z,25.59
2017-04-01T09:56:36.255Z,26.46
2017-04-01T09:57:36.298Z,27.04
2017-04-01T09:58:36.357Z,27.03
2017-04-01T09:59:36.396Z,27.33
2017-04-01T10:00:36.447Z,27.33
2017-04-01T10:01:36.491Z,27.32
2017-04-01T10:02:36.540Z,27.31
2017-04-01T10:03:36.595Z,28.11
2017-04-01T10:04:36.641Z,28.31
2017-04-01T10:05:36.683Z,28.13
2017-04-01T10:06:36.735Z,27.94
2017-04-01T10:07:36.765Z,27.44
2017-04-01T10:08:36.857Z,27.44
2017-04-01T10:09:36.877Z,27.56
2017-04-01T10:10:36.929Z,27.37
2017-04-01T10:11:36.956Z,27.09
2017-04-01T10:12:37.024Z,26.21
2017-04-01T10:13:37.064Z,26.8
2017-04-01T10:14:37.115Z,27
2017-04-01T10:15:37.157Z,27.1
2017-04-01T10:16:37.202Z,27.1
2017-04-01T10:17:37.251Z,27
2017-04-01T10:18:37.305Z,26.61
2017-04-01T10:19:37.345Z,27
2017-04-01T10:20:37.393Z,27
2017-04-01T10:21:37.481Z,27.2
2017-04-01T10:22:37.485Z,27.1
2017-04-01T10:23:37.536Z,26.1
2017-04-01T10:24:37.586Z,26.52
2017-04-01T10:25:37.628Z,27.1
2017-04-01T10:26:37.690Z,26.1
2017-04-01T10:27:37.718Z,27.06
2017-04-01T10:28:37.761Z,27.06
2017-04-01T10:29:37.807Z,27.06
2017-04-01T10:30:37.858Z,27.06
2017-04-01T10:31:37.900Z,26.86
2017-04-01T10:32:37.947Z,26.86
2017-04-01T10:33:37.990Z,27.06
2017-04-01T10:34:38.036Z,27.36
2017-04-01T10:35:38.085Z,26.55
2017-04-01T10:36:38.127Z,26.86
2017-04-01T10:37:38.196Z,27.04
2017-04-01T10:38:38.213Z,26.76
2017-04-01T10:39:38.260Z,25.97
2017-04-01T10:40:38.305Z,25.76
2017-04-01T10:41:38.344Z,27.03
2017-04-01T10:42:38.392Z,26.74
2017-04-01T10:43:38.443Z,27.14
2017-04-01T10:44:38.689Z,27.12
2017-04-01T10:45:38.530Z,26.92
2017-04-01T10:46:38.569Z,26.54
2017-04-01T10:47:38.609Z,26.25
2017-04-01T10:48:38.655Z,26.15
2017-04-01T10:49:38.695Z,25.66
2017-04-01T10:50:38.776Z,26.26
2017-04-01T10:51:38.787Z,26.37
2017-04-01T10:52:38.827Z,26.76
2017-04-01T10:53:38.869Z,26.17
2017-04-01T10:54:38.915Z,26.48
2017-04-01T10:55:38.952Z,26.58
2017-04-01T10:56:38.998Z,25.77
2017-04-01T10:57:39.049Z,25.97
2017-04-01T10:58:39.086Z,26.04
2017-04-01T10:59:39.127Z,26.34
2017-04-01T11:00:39.162Z,26.54
2017-04-01T11:01:39.212Z,26.43
2017-04-01T11:02:39.259Z,27.02
2017-04-01T11:03:39.297Z,27.21
2017-04-01T11:04:39.342Z,27.29
2017-04-01T11:05:39.369Z,27.31
2017-04-01T11:06:39.429Z,27.21
2017-04-01T11:07:39.461Z,26.82
2017-04-01T11:08:39.516Z,26.82
2017-04-01T11:09:39.552Z,26.43
2017-04-01T11:10:39.591Z,26.43
2017-04-01T11:11:39.637Z,26.43
2017-04-01T11:12:39.669Z,26.53
2017-04-01T11:13:39.712Z,26.71
2017-04-01T11:14:39.767Z,27.11
2017-04-01T11:15:39.798Z,26.91
2017-04-01T11:16:39.849Z,27.09
2017-04-01T11:17:39.890Z,27.19
2017-04-01T11:18:39.929Z,27.59
2017-04-01T11:19:39.957Z,27.58
2017-04-01T11:20:40.018Z,27.87
2017-04-01T11:21:40.061Z,27.58
2017-04-01T11:22:40.095Z,27.67
2017-04-01T11:23:40.136Z,27.97
2017-04-01T11:24:40.184Z,27.97
2017-04-01T11:25:40.216Z,28.28
2017-04-01T11:26:40.267Z,27.87
2017-04-01T11:27:40.288Z,27.76
2017-04-01T11:28:40.347Z,27.65
2017-04-01T11:29:40.389Z,27.75
2017-04-01T11:30:40.422Z,28.14
2017-04-01T11:31:40.465Z,28.8
2017-04-01T11:32:40.504Z,29.09
2017-04-01T11:33:40.557Z,29.14
2017-04-01T11:34:40.592Z,29.72
2017-04-01T11:35:40.639Z,29.8
2017-04-01T11:36:40.672Z,30.28
2017-04-01T11:37:40.754Z,30.38
2017-04-01T11:38:40.761Z,30.76
2017-04-01T11:39:40.796Z,30.17
2017-04-01T11:40:40.840Z,30.56
2017-04-01T11:41:40.873Z,30.36
2017-04-01T11:42:40.916Z,30.95
2017-04-01T11:43:40.960Z,30.76
2017-04-01T11:44:41.040Z,30.36
2017-04-01T11:45:41.040Z,30.55
2017-04-01T11:46:41.068Z,31.41
2017-04-01T11:47:41.123Z,31.73
2017-04-01T11:48:41.164Z,32.3
2017-04-01T11:49:41.206Z,31.7
2017-04-01T11:50:41.245Z,32.76
2017-04-01T11:51:41.286Z,32.73
2017-04-01T11:52:41.324Z,33.77
2017-04-01T11:53:41.366Z,34.72
2017-04-01T11:54:41.410Z,35.27
2017-04-01T11:55:41.447Z,36.11
2017-04-01T11:56:41.487Z,37.25
2017-04-01T11:57:41.536Z,38.87
2017-04-01T11:58:41.568Z,39.8
2017-04-01T11:59:41.611Z,40.54
2017-04-01T12:00:41.655Z,40.81
2017-04-01T12:01:41.690Z,42.23
2017-04-01T12:02:41.730Z,43.37
2017-04-01T12:03:41.772Z,44.59
2017-04-01T12:04:41.811Z,44.76
2017-04-01T12:05:41.847Z,45.73
2017-04-01T12:06:41.887Z,46
2017-04-01T12:07:41.929Z,46
2017-04-01T12:08:41.970Z,46.84
2017-04-01T12:09:42.007Z,46.63
2017-04-01T12:10:42.051Z,46.44
2017-04-01T12:11:42.092Z,46.32
2017-04-01T12:12:42.132Z,48.16
2017-04-01T12:13:42.169Z,48.74
2017-04-01T12:14:42.210Z,48.35
2017-04-01T12:15:42.250Z,48.52
2017-04-01T12:16:42.295Z,48.81
2017-04-01T12:17:42.330Z,48.81
2017-04-01T12:18:42.375Z,48.52
2017-04-01T12:19:42.400Z,48.9
2017-04-01T12:20:42.452Z,48.71
2017-04-01T12:21:42.482Z,49
2017-04-01T12:22:42.529Z,48.97
2017-04-01T12:23:42.561Z,49.85
2017-04-01T12:24:42.627Z,49.65
2017-04-01T12:25:42.646Z,49.46
2017-04-01T12:26:42.697Z,50.04
2017-04-01T12:27:42.725Z,50.4
2017-04-01T12:28:42.766Z,50.62
2017-04-01T12:29:42.804Z,49.65
2017-04-01T12:30:42.846Z,49.85
2017-04-01T12:31:42.900Z,49.46
2017-04-01T12:32:42.921Z,49.65
2017-04-01T12:33:42.965Z,49.85
2017-04-01T12:34:43.008Z,49.55
2017-04-01T12:35:43.055Z,49.55
2017-04-01T12:36:43.087Z,49.75
2017-04-01T12:37:43.109Z,50.13
2017-04-01T12:38:43.167Z,50.21
2017-04-01T12:39:43.200Z,50.79
2017-04-01T12:40:43.244Z,51.27
2017-04-01T12:41:43.282Z,51.56
2017-04-01T12:42:43.310Z,51.37
2017-04-01T12:43:43.363Z,51.17
2017-04-01T12:44:43.394Z,51.07
2017-04-01T12:45:43.445Z,51.34
2017-04-01T12:46:43.479Z,51.56
2017-04-01T12:47:43.522Z,51.34
2017-04-01T12:48:43.556Z,50.98
2017-04-01T12:49:43.595Z,51.56
2017-04-01T12:50:43.638Z,51.34
2017-04-01T12:51:43.680Z,51.75
2017-04-01T12:52:43.712Z,51.82
2017-04-01T12:53:43.739Z,51.92
2017-04-01T12:54:43.793Z,52.4